sensor_id;sensor_type;location;lat;lon;timestamp;pressure;altitude;pressure_sealevel;temperature;humidity
9746;BME280;4912;50.836;12.958;2023-11-18T00:01:12;98397.00;;;6.03;97.67
9746;BME280;4912;50.836;12.958;2023-11-18T00:03:43;98398.28;;;5.99;97.79
9746;BME280;4912;50.836;12.958;2023-11-18T00:06:16;98395.88;;;6.01;98.68
9746;BME280;4912;50.836;12.958;2023-11-18T00:08:47;98401.44;;;5.97;98.19
9746;BME280;4912;50.836;12.958;2023-11-18T00:11:17;98411.66;;;5.97;98.84
9746;BME280;4912;50.836;12.958;2023-11-18T00:13:48;98406.66;;;5.92;99.03
9746;BME280;4912;50.836;12.958;2023-11-18T00:16:19;98408.84;;;6.00;99.64
9746;BME280;4912;50.836;12.958;2023-11-18T00:18:49;98413.56;;;6.00;98.93
9746;BME280;4912;50.836;12.958;2023-11-18T00:21:23;98411.88;;;6.06;99.00
9746;BME280;4912;50.836;12.958;2023-11-18T00:23:54;98422.13;;;6.02;99.36
9746;BME280;4912;50.836;12.958;2023-11-18T00:26:25;98420.59;;;6.01;99.96
9746;BME280;4912;50.836;12.958;2023-11-18T00:28:58;98418.00;;;5.94;100.00
9746;BME280;4912;50.836;12.958;2023-11-18T00:31:29;98419.19;;;5.93;100.00
9746;BME280;4912;50.836;12.958;2023-11-18T00:34:00;98423.91;;;5.92;100.00
9746;BME280;4912;50.836;12.958;2023-11-18T00:36:33;98429.28;;;5.99;100.00
9746;BME280;4912;50.836;12.958;2023-11-18T00:39:04;98426.56;;;5.96;100.00
9746;BME280;4912;50.836;12.958;2023-11-18T00:41:34;98430.66;;;5.88;100.00
9746;BME280;4912;50.836;12.958;2023-11-18T00:44:05;98428.53;;;5.95;100.00
9746;BME280;4912;50.836;12.958;2023-11-18T00:46:37;98430.81;;;6.00;100.00
9746;BME280;4912;50.836;12.958;2023-11-18T00:49:08;98436.84;;;5.92;100.00
9746;BME280;4912;50.836;12.958;2023-11-18T00:51:41;98442.03;;;5.86;99.88
9746;BME280;4912;50.836;12.958;2023-11-18T00:54:12;98446.38;;;5.84;99.89
9746;BME280;4912;50.836;12.958;2023-11-18T00:56:42;98436.44;;;5.93;100.00
9746;BME280;4912;50.836;12.958;2023-11-18T00:59:14;98448.53;;;5.96;99.68
9746;BME280;4912;50.836;12.958;2023-11-18T01:01:45;98433.34;;;5.91;98.76
9746;BME280;4912;50.836;12.958;2023-11-18T01:04:16;98452.94;;;5.93;99.27
9746;BME280;4912;50.836;12.958;2023-11-18T01:06:49;98454.47;;;5.94;98.66
9746;BME280;4912;50.836;12.958;2023-11-18T01:09:20;98455.66;;;5.93;98.17
9746;BME280;4912;50.836;12.958;2023-11-18T01:11:52;98454.53;;;5.91;98.33
9746;BME280;4912;50.836;12.958;2023-11-18T01:14:35;98445.78;;;5.96;98.87
9746;BME280;4912;50.836;12.958;2023-11-18T01:17:07;98451.25;;;5.99;98.70
9746;BME280;4912;50.836;12.958;2023-11-18T01:19:37;98444.72;;;5.90;98.08
9746;BME280;4912;50.836;12.958;2023-11-18T01:22:11;98456.88;;;5.92;99.27
9746;BME280;4912;50.836;12.958;2023-11-18T01:24:41;98447.78;;;5.95;98.74
9746;BME280;4912;50.836;12.958;2023-11-18T01:27:12;98462.22;;;5.99;99.04
9746;BME280;4912;50.836;12.958;2023-11-18T01:29:43;98462.84;;;6.07;98.65
9746;BME280;4912;50.836;12.958;2023-11-18T01:32:14;98460.06;;;6.10;99.00
9746;BME280;4912;50.836;12.958;2023-11-18T01:34:44;98463.16;;;6.12;98.61
9746;BME280;4912;50.836;12.958;2023-11-18T01:37:20;98467.38;;;6.17;98.79
9746;BME280;4912;50.836;12.958;2023-11-18T01:39:51;98468.94;;;6.18;98.83
9746;BME280;4912;50.836;12.958;2023-11-18T01:42:22;98470.91;;;6.18;98.97
9746;BME280;4912;50.836;12.958;2023-11-18T01:44:53;98469.84;;;6.11;98.98
9746;BME280;4912;50.836;12.958;2023-11-18T01:47:24;98466.75;;;6.09;99.67
9746;BME280;4912;50.836;12.958;2023-11-18T01:49:54;98465.13;;;6.12;99.91
9746;BME280;4912;50.836;12.958;2023-11-18T01:52:28;98464.00;;;6.09;99.24
9746;BME280;4912;50.836;12.958;2023-11-18T01:54:59;98466.66;;;6.13;99.37
9746;BME280;4912;50.836;12.958;2023-11-18T01:57:31;98469.34;;;6.16;99.01
9746;BME280;4912;50.836;12.958;2023-11-18T02:00:03;98465.13;;;6.12;98.99
9746;BME280;4912;50.836;12.958;2023-11-18T02:02:38;98473.84;;;6.07;98.37
9746;BME280;4912;50.836;12.958;2023-11-18T02:05:11;98477.34;;;6.07;98.42
9746;BME280;4912;50.836;12.958;2023-11-18T02:07:46;98478.50;;;6.10;98.17
9746;BME280;4912;50.836;12.958;2023-11-18T02:10:17;98474.91;;;6.13;98.32
9746;BME280;4912;50.836;12.958;2023-11-18T02:12:55;98480.88;;;6.08;98.13
9746;BME280;4912;50.836;12.958;2023-11-18T02:15:33;98473.38;;;6.12;98.32
9746;BME280;4912;50.836;12.958;2023-11-18T02:18:06;98478.00;;;6.15;98.24
9746;BME280;4912;50.836;12.958;2023-11-18T02:20:39;98475.19;;;6.18;97.85
9746;BME280;4912;50.836;12.958;2023-11-18T02:23:13;98484.50;;;6.25;97.40
9746;BME280;4912;50.836;12.958;2023-11-18T02:25:47;98484.78;;;6.10;97.04
9746;BME280;4912;50.836;12.958;2023-11-18T02:28:18;98486.81;;;6.06;97.82
9746;BME280;4912;50.836;12.958;2023-11-18T02:30:49;98490.41;;;6.03;98.05
9746;BME280;4912;50.836;12.958;2023-11-18T02:33:27;98497.44;;;6.04;98.19
9746;BME280;4912;50.836;12.958;2023-11-18T02:36:10;98486.47;;;6.04;98.13
9746;BME280;4912;50.836;12.958;2023-11-18T02:38:50;98491.88;;;6.08;98.24
9746;BME280;4912;50.836;12.958;2023-11-18T02:41:26;98493.16;;;6.03;98.37
9746;BME280;4912;50.836;12.958;2023-11-18T02:43:58;98495.91;;;6.03;98.00
9746;BME280;4912;50.836;12.958;2023-11-18T02:46:29;98497.50;;;6.01;98.37
9746;BME280;4912;50.836;12.958;2023-11-18T02:49:01;98491.25;;;6.00;98.44
9746;BME280;4912;50.836;12.958;2023-11-18T02:51:32;98496.31;;;6.02;98.55
9746;BME280;4912;50.836;12.958;2023-11-18T02:54:07;98497.44;;;6.04;98.62
9746;BME280;4912;50.836;12.958;2023-11-18T02:56:40;98498.63;;;6.03;98.27
9746;BME280;4912;50.836;12.958;2023-11-18T02:59:11;98495.53;;;6.01;97.78
9746;BME280;4912;50.836;12.958;2023-11-18T03:01:42;98495.22;;;5.96;98.42
9746;BME280;4912;50.836;12.958;2023-11-18T03:04:12;98492.56;;;5.92;98.17
9746;BME280;4912;50.836;12.958;2023-11-18T03:06:46;98501.50;;;5.96;98.62
9746;BME280;4912;50.836;12.958;2023-11-18T03:09:17;98503.44;;;5.99;98.24
9746;BME280;4912;50.836;12.958;2023-11-18T03:11:51;98496.75;;;6.00;98.05
9746;BME280;4912;50.836;12.958;2023-11-18T03:14:22;98501.47;;;6.00;98.15
9746;BME280;4912;50.836;12.958;2023-11-18T03:16:52;98505.69;;;6.04;97.44
9746;BME280;4912;50.836;12.958;2023-11-18T03:19:23;98501.50;;;5.96;96.88
9746;BME280;4912;50.836;12.958;2023-11-18T03:21:54;98506.59;;;5.98;97.14
9746;BME280;4912;50.836;12.958;2023-11-18T03:24:25;98506.19;;;5.99;96.98
9746;BME280;4912;50.836;12.958;2023-11-18T03:26:58;98503.47;;;5.96;97.14
9746;BME280;4912;50.836;12.958;2023-11-18T03:29:28;98512.84;;;5.98;97.34
9746;BME280;4912;50.836;12.958;2023-11-18T03:31:59;98506.66;;;5.94;97.48
9746;BME280;4912;50.836;12.958;2023-11-18T03:34:32;98514.91;;;5.94;97.61
9746;BME280;4912;50.836;12.958;2023-11-18T03:37:03;98512.16;;;5.94;98.01
9746;BME280;4912;50.836;12.958;2023-11-18T03:39:34;98518.88;;;5.90;98.33
9746;BME280;4912;50.836;12.958;2023-11-18T03:42:07;98518.06;;;5.93;98.19
9746;BME280;4912;50.836;12.958;2023-11-18T03:44:38;98518.09;;;5.89;98.07
9746;BME280;4912;50.836;12.958;2023-11-18T03:47:08;98527.09;;;5.93;98.51
9746;BME280;4912;50.836;12.958;2023-11-18T03:49:39;98523.72;;;6.05;98.30
9746;BME280;4912;50.836;12.958;2023-11-18T03:52:10;98529.91;;;6.09;97.80
9746;BME280;4912;50.836;12.958;2023-11-18T03:54:40;98527.19;;;6.09;97.53
9746;BME280;4912;50.836;12.958;2023-11-18T03:57:14;98529.63;;;6.04;97.89
9746;BME280;4912;50.836;12.958;2023-11-18T03:59:45;98527.97;;;6.10;97.87
9746;BME280;4912;50.836;12.958;2023-11-18T04:02:15;98524.91;;;6.04;97.22
9746;BME280;4912;50.836;12.958;2023-11-18T04:04:46;98536.31;;;6.03;97.11
9746;BME280;4912;50.836;12.958;2023-11-18T04:07:17;98533.53;;;6.06;97.56
9746;BME280;4912;50.836;12.958;2023-11-18T04:09:49;98543.78;;;6.02;97.50
9746;BME280;4912;50.836;12.958;2023-11-18T04:12:22;98542.84;;;6.12;97.06
9746;BME280;4912;50.836;12.958;2023-11-18T04:14:53;98547.06;;;6.17;96.82
9746;BME280;4912;50.836;12.958;2023-11-18T04:17:24;98542.88;;;6.09;96.35
9746;BME280;4912;50.836;12.958;2023-11-18T04:19:56;98548.50;;;6.02;96.86
9746;BME280;4912;50.836;12.958;2023-11-18T04:22:27;98543.06;;;5.98;96.91
9746;BME280;4912;50.836;12.958;2023-11-18T04:24:58;98543.47;;;5.97;97.14
9746;BME280;4912;50.836;12.958;2023-11-18T04:27:31;98550.53;;;5.98;97.75
9746;BME280;4912;50.836;12.958;2023-11-18T04:30:01;98550.81;;;6.03;97.71
9746;BME280;4912;50.836;12.958;2023-11-18T04:32:32;98542.28;;;5.98;97.32
9746;BME280;4912;50.836;12.958;2023-11-18T04:35:04;98558.84;;;5.94;97.27
9746;BME280;4912;50.836;12.958;2023-11-18T04:37:37;98558.06;;;5.94;97.11
9746;BME280;4912;50.836;12.958;2023-11-18T04:40:11;98562.19;;;6.05;97.12
9746;BME280;4912;50.836;12.958;2023-11-18T04:42:45;98557.88;;;6.04;96.93
9746;BME280;4912;50.836;12.958;2023-11-18T04:45:15;98565.22;;;6.11;96.66
9746;BME280;4912;50.836;12.958;2023-11-18T04:47:46;98565.22;;;6.11;96.51
9746;BME280;4912;50.836;12.958;2023-11-18T04:50:19;98557.94;;;6.01;96.21
9746;BME280;4912;50.836;12.958;2023-11-18T04:52:49;98557.94;;;6.01;96.41
9746;BME280;4912;50.836;12.958;2023-11-18T04:55:20;98561.00;;;6.06;96.88
9746;BME280;4912;50.836;12.958;2023-11-18T04:57:53;98562.53;;;6.07;96.41
9746;BME280;4912;50.836;12.958;2023-11-18T05:00:24;98554.72;;;6.06;96.10
9746;BME280;4912;50.836;12.958;2023-11-18T05:02:55;98558.69;;;6.01;96.73
9746;BME280;4912;50.836;12.958;2023-11-18T05:05:26;98559.38;;;6.09;96.85
9746;BME280;4912;50.836;12.958;2023-11-18T05:07:56;98564.16;;;6.05;96.04
9746;BME280;4912;50.836;12.958;2023-11-18T05:10:27;98558.53;;;6.12;95.87
9746;BME280;4912;50.836;12.958;2023-11-18T05:13:00;98560.06;;;6.13;95.32
9746;BME280;4912;50.836;12.958;2023-11-18T05:15:31;98560.66;;;6.01;95.08
9746;BME280;4912;50.836;12.958;2023-11-18T05:18:04;98563.00;;;6.02;95.73
9746;BME280;4912;50.836;12.958;2023-11-18T05:20:38;98549.47;;;5.92;95.64
9746;BME280;4912;50.836;12.958;2023-11-18T05:23:09;98558.84;;;5.94;95.99
9746;BME280;4912;50.836;12.958;2023-11-18T05:25:42;98549.91;;;5.87;96.27
9746;BME280;4912;50.836;12.958;2023-11-18T05:28:15;98547.25;;;5.83;96.85
9746;BME280;4912;50.836;12.958;2023-11-18T05:30:47;98549.53;;;5.85;97.12
9746;BME280;4912;50.836;12.958;2023-11-18T05:33:18;98547.97;;;5.87;96.96
9746;BME280;4912;50.836;12.958;2023-11-18T05:35:48;98545.16;;;5.91;97.01
9746;BME280;4912;50.836;12.958;2023-11-18T05:38:20;98547.88;;;5.94;96.91
9746;BME280;4912;50.836;12.958;2023-11-18T05:40:53;98555.38;;;5.90;96.36
9746;BME280;4912;50.836;12.958;2023-11-18T05:43:32;98565.94;;;5.92;96.16
9746;BME280;4912;50.836;12.958;2023-11-18T05:46:07;98555.75;;;5.92;95.81
9746;BME280;4912;50.836;12.958;2023-11-18T05:48:53;98560.81;;;5.94;95.66
9746;BME280;4912;50.836;12.958;2023-11-18T05:51:25;98563.25;;;5.88;95.62
9746;BME280;4912;50.836;12.958;2023-11-18T05:53:56;98565.94;;;5.92;95.55
9746;BME280;4912;50.836;12.958;2023-11-18T05:56:27;98572.59;;;5.94;95.39
9746;BME280;4912;50.836;12.958;2023-11-18T05:59:02;98568.69;;;5.92;94.87
9746;BME280;4912;50.836;12.958;2023-11-18T06:01:32;98583.19;;;5.92;94.78
9746;BME280;4912;50.836;12.958;2023-11-18T06:04:05;98567.53;;;5.89;94.76
9746;BME280;4912;50.836;12.958;2023-11-18T06:06:36;98572.22;;;5.92;95.00
9746;BME280;4912;50.836;12.958;2023-11-18T06:09:07;98565.53;;;5.93;94.38
9746;BME280;4912;50.836;12.958;2023-11-18T06:11:47;98568.63;;;5.95;94.11
9746;BME280;4912;50.836;12.958;2023-11-18T06:14:23;98570.53;;;5.98;93.76
9746;BME280;4912;50.836;12.958;2023-11-18T06:16:53;98573.66;;;6.00;94.08
9746;BME280;4912;50.836;12.958;2023-11-18T06:19:26;98564.28;;;5.98;93.52
9746;BME280;4912;50.836;12.958;2023-11-18T06:21:57;98568.63;;;5.95;94.08
9746;BME280;4912;50.836;12.958;2023-11-18T06:24:27;98566.25;;;5.97;94.22
9746;BME280;4912;50.836;12.958;2023-11-18T06:26:58;98565.28;;;6.07;97.40
9746;BME280;4912;50.836;12.958;2023-11-18T06:29:31;98562.06;;;6.12;96.37
9746;BME280;4912;50.836;12.958;2023-11-18T06:32:02;98563.50;;;5.97;95.02
9746;BME280;4912;50.836;12.958;2023-11-18T06:34:33;98554.66;;;6.09;95.68
9746;BME280;4912;50.836;12.958;2023-11-18T06:37:04;98557.81;;;6.08;94.82
9746;BME280;4912;50.836;12.958;2023-11-18T06:39:35;98557.41;;;6.09;95.59
9746;BME280;4912;50.836;12.958;2023-11-18T06:42:07;98560.22;;;6.06;94.60
9746;BME280;4912;50.836;12.958;2023-11-18T06:44:41;98566.50;;;6.06;94.49
9746;BME280;4912;50.836;12.958;2023-11-18T06:47:12;98569.28;;;6.03;94.03
9746;BME280;4912;50.836;12.958;2023-11-18T06:49:45;98574.38;;;6.04;94.94
9746;BME280;4912;50.836;12.958;2023-11-18T06:52:16;98574.88;;;6.19;94.72
9746;BME280;4912;50.836;12.958;2023-11-18T06:54:48;98572.97;;;6.16;94.03
9746;BME280;4912;50.836;12.958;2023-11-18T06:57:19;98571.00;;;6.16;93.84
9746;BME280;4912;50.836;12.958;2023-11-18T06:59:52;98578.97;;;6.11;93.84
9746;BME280;4912;50.836;12.958;2023-11-18T07:02:23;98570.94;;;6.20;93.84
9746;BME280;4912;50.836;12.958;2023-11-18T07:04:54;98572.88;;;6.23;93.68
9746;BME280;4912;50.836;12.958;2023-11-18T07:07:24;98585.03;;;6.22;93.46
9746;BME280;4912;50.836;12.958;2023-11-18T07:09:55;98576.56;;;6.13;93.75
9746;BME280;4912;50.836;12.958;2023-11-18T07:12:26;98580.94;;;6.10;94.11
9746;BME280;4912;50.836;12.958;2023-11-18T07:14:59;98572.91;;;6.20;94.52
9746;BME280;4912;50.836;12.958;2023-11-18T07:17:29;98581.16;;;6.20;94.44
9746;BME280;4912;50.836;12.958;2023-11-18T07:20:02;98585.03;;;6.22;93.97
9746;BME280;4912;50.836;12.958;2023-11-18T07:22:33;98589.50;;;6.36;93.89
9746;BME280;4912;50.836;12.958;2023-11-18T07:25:05;98584.19;;;6.25;93.96
9746;BME280;4912;50.836;12.958;2023-11-18T07:27:36;98593.59;;;6.28;93.59
9746;BME280;4912;50.836;12.958;2023-11-18T07:30:10;98592.88;;;6.24;92.80
9746;BME280;4912;50.836;12.958;2023-11-18T07:32:41;98608.59;;;6.23;93.97
9746;BME280;4912;50.836;12.958;2023-11-18T07:35:12;98614.78;;;6.27;94.00
9746;BME280;4912;50.836;12.958;2023-11-18T07:37:43;98617.13;;;6.29;93.50
9746;BME280;4912;50.836;12.958;2023-11-18T07:40:14;98624.78;;;6.18;94.05
9746;BME280;4912;50.836;12.958;2023-11-18T07:42:49;98622.97;;;6.07;95.28
9746;BME280;4912;50.836;12.958;2023-11-18T07:45:22;98624.63;;;6.25;94.83
9746;BME280;4912;50.836;12.958;2023-11-18T07:47:54;98624.50;;;6.32;94.19
9746;BME280;4912;50.836;12.958;2023-11-18T07:50:24;98624.97;;;6.50;93.65
9746;BME280;4912;50.836;12.958;2023-11-18T07:52:55;98618.28;;;6.51;92.78
9746;BME280;4912;50.836;12.958;2023-11-18T07:55:26;98625.84;;;6.47;92.84
9746;BME280;4912;50.836;12.958;2023-11-18T07:57:56;98620.97;;;6.31;93.08
9746;BME280;4912;50.836;12.958;2023-11-18T08:00:30;98628.81;;;6.09;94.05
9746;BME280;4912;50.836;12.958;2023-11-18T08:03:06;98637.66;;;5.97;94.86
9746;BME280;4912;50.836;12.958;2023-11-18T08:05:39;98634.84;;;6.01;95.14
9746;BME280;4912;50.836;12.958;2023-11-18T08:08:11;98638.56;;;6.14;95.10
9746;BME280;4912;50.836;12.958;2023-11-18T08:10:44;98640.66;;;6.30;94.30
9746;BME280;4912;50.836;12.958;2023-11-18T08:13:15;98645.53;;;6.18;94.66
9746;BME280;4912;50.836;12.958;2023-11-18T08:15:49;98644.13;;;6.10;94.84
9746;BME280;4912;50.836;12.958;2023-11-18T08:18:19;98641.19;;;5.98;94.88
9746;BME280;4912;50.836;12.958;2023-11-18T08:20:51;98658.16;;;5.89;95.57
9746;BME280;4912;50.836;12.958;2023-11-18T08:23:22;98653.84;;;5.92;96.20
9746;BME280;4912;50.836;12.958;2023-11-18T08:25:54;98659.25;;;5.95;96.25
9746;BME280;4912;50.836;12.958;2023-11-18T08:28:24;98657.25;;;5.99;96.16
9746;BME280;4912;50.836;12.958;2023-11-18T08:30:58;98652.34;;;6.10;95.67
9746;BME280;4912;50.836;12.958;2023-11-18T08:33:28;98650.13;;;6.25;94.56
9746;BME280;4912;50.836;12.958;2023-11-18T08:36:00;98653.72;;;6.45;93.54
9746;BME280;4912;50.836;12.958;2023-11-18T08:38:31;98649.38;;;6.48;92.32
9746;BME280;4912;50.836;12.958;2023-11-18T08:41:02;98650.91;;;6.49;91.95
9746;BME280;4912;50.836;12.958;2023-11-18T08:43:36;98658.44;;;6.45;91.30
9746;BME280;4912;50.836;12.958;2023-11-18T08:46:10;98657.97;;;6.50;92.04
9746;BME280;4912;50.836;12.958;2023-11-18T08:48:41;98664.94;;;6.54;91.38
9746;BME280;4912;50.836;12.958;2023-11-18T08:51:12;98658.00;;;6.70;90.99
9746;BME280;4912;50.836;12.958;2023-11-18T08:53:43;98651.06;;;6.62;90.13
9746;BME280;4912;50.836;12.958;2023-11-18T08:56:15;98656.38;;;6.72;90.60
9746;BME280;4912;50.836;12.958;2023-11-18T08:58:47;98655.50;;;6.98;89.66
9746;BME280;4912;50.836;12.958;2023-11-18T09:01:21;98644.22;;;7.13;88.11
9746;BME280;4912;50.836;12.958;2023-11-18T09:03:55;98646.78;;;7.20;86.97
9746;BME280;4912;50.836;12.958;2023-11-18T09:06:29;98645.16;;;7.42;86.39
9746;BME280;4912;50.836;12.958;2023-11-18T09:09:01;98648.34;;;7.40;85.26
9746;BME280;4912;50.836;12.958;2023-11-18T09:11:37;98646.97;;;7.49;84.80
9746;BME280;4912;50.836;12.958;2023-11-18T09:14:09;98651.78;;;7.80;83.09
9746;BME280;4912;50.836;12.958;2023-11-18T09:16:42;98654.09;;;7.82;82.04
9746;BME280;4912;50.836;12.958;2023-11-18T09:19:13;98651.63;;;8.20;81.02
9746;BME280;4912;50.836;12.958;2023-11-18T09:21:43;98650.25;;;8.28;79.30
9746;BME280;4912;50.836;12.958;2023-11-18T09:24:14;98665.56;;;7.97;80.19
9746;BME280;4912;50.836;12.958;2023-11-18T09:26:46;98663.72;;;7.74;81.11
9746;BME280;4912;50.836;12.958;2023-11-18T09:29:18;98669.63;;;7.56;81.02
9746;BME280;4912;50.836;12.958;2023-11-18T09:31:54;98672.56;;;7.29;82.47
9746;BME280;4912;50.836;12.958;2023-11-18T09:34:26;98674.34;;;7.56;83.21
9746;BME280;4912;50.836;12.958;2023-11-18T09:37:00;98684.06;;;7.96;81.71
9746;BME280;4912;50.836;12.958;2023-11-18T09:39:32;98675.47;;;7.94;80.05
9746;BME280;4912;50.836;12.958;2023-11-18T09:42:13;98672.41;;;7.72;80.30
9746;BME280;4912;50.836;12.958;2023-11-18T09:44:47;98677.44;;;7.77;81.54
9746;BME280;4912;50.836;12.958;2023-11-18T09:47:21;98661.88;;;8.19;80.10
9746;BME280;4912;50.836;12.958;2023-11-18T09:50:02;98666.88;;;8.57;78.28
9746;BME280;4912;50.836;12.958;2023-11-18T09:52:42;98659.56;;;9.08;76.23
9746;BME280;4912;50.836;12.958;2023-11-18T09:55:26;98669.56;;;9.18;76.06
9746;BME280;4912;50.836;12.958;2023-11-18T09:58:04;98663.28;;;9.18;74.28
9746;BME280;4912;50.836;12.958;2023-11-18T10:00:41;98675.38;;;9.08;75.43
9746;BME280;4912;50.836;12.958;2023-11-18T10:03:14;98676.38;;;8.85;75.52
9746;BME280;4912;50.836;12.958;2023-11-18T10:05:45;98676.25;;;8.76;75.76
9746;BME280;4912;50.836;12.958;2023-11-18T10:08:16;98671.13;;;8.45;76.56
9746;BME280;4912;50.836;12.958;2023-11-18T10:10:53;98682.81;;;8.49;77.30
9746;BME280;4912;50.836;12.958;2023-11-18T10:13:32;98678.41;;;8.19;77.34
9746;BME280;4912;50.836;12.958;2023-11-18T10:16:08;98683.91;;;7.87;78.29
9746;BME280;4912;50.836;12.958;2023-11-18T10:18:41;98677.13;;;7.72;79.99
9746;BME280;4912;50.836;12.958;2023-11-18T10:21:16;98685.19;;;7.47;81.27
9746;BME280;4912;50.836;12.958;2023-11-18T10:23:59;98678.41;;;7.51;82.49
9746;BME280;4912;50.836;12.958;2023-11-18T10:26:32;98676.78;;;7.54;82.50
9746;BME280;4912;50.836;12.958;2023-11-18T10:29:05;98661.50;;;7.49;83.05
9746;BME280;4912;50.836;12.958;2023-11-18T10:31:36;98666.47;;;7.58;82.90
9746;BME280;4912;50.836;12.958;2023-11-18T10:34:15;98657.97;;;7.49;83.09
9746;BME280;4912;50.836;12.958;2023-11-18T10:36:59;98648.78;;;7.55;82.83
9746;BME280;4912;50.836;12.958;2023-11-18T10:39:33;98639.84;;;7.51;82.48
9746;BME280;4912;50.836;12.958;2023-11-18T10:42:05;98643.56;;;7.61;82.10
9746;BME280;4912;50.836;12.958;2023-11-18T10:44:35;98641.53;;;7.81;81.11
9746;BME280;4912;50.836;12.958;2023-11-18T10:47:07;98641.44;;;8.49;79.48
9746;BME280;4912;50.836;12.958;2023-11-18T10:49:41;98634.31;;;9.10;76.54
9746;BME280;4912;50.836;12.958;2023-11-18T10:52:13;98623.25;;;9.89;72.74
9746;BME280;4912;50.836;12.958;2023-11-18T10:54:50;98626.94;;;10.33;71.03
9746;BME280;4912;50.836;12.958;2023-11-18T10:57:22;98630.44;;;10.59;69.27
9746;BME280;4912;50.836;12.958;2023-11-18T10:59:59;98644.22;;;10.72;67.87
9746;BME280;4912;50.836;12.958;2023-11-18T11:02:31;98639.34;;;10.16;68.21
9746;BME280;4912;50.836;12.958;2023-11-18T11:05:09;98654.63;;;9.70;69.87
9746;BME280;4912;50.836;12.958;2023-11-18T11:07:48;98641.47;;;9.86;69.87
9746;BME280;4912;50.836;12.958;2023-11-18T11:10:19;98646.69;;;9.72;69.67
9746;BME280;4912;50.836;12.958;2023-11-18T11:13:00;98650.13;;;9.22;70.57
9746;BME280;4912;50.836;12.958;2023-11-18T11:15:33;98648.00;;;9.80;71.17
9746;BME280;4912;50.836;12.958;2023-11-18T11:18:21;98656.41;;;9.89;69.92
9746;BME280;4912;50.836;12.958;2023-11-18T11:21:07;98648.75;;;11.22;66.27
9746;BME280;4912;50.836;12.958;2023-11-18T11:23:50;98621.41;;;11.85;62.10
9746;BME280;4912;50.836;12.958;2023-11-18T11:26:28;98629.34;;;12.05;60.24
9746;BME280;4912;50.836;12.958;2023-11-18T11:29:25;98629.72;;;11.85;60.39
9746;BME280;4912;50.836;12.958;2023-11-18T11:32:11;98625.16;;;12.01;61.05
9746;BME280;4912;50.836;12.958;2023-11-18T11:34:53;98631.31;;;11.43;60.85
9746;BME280;4912;50.836;12.958;2023-11-18T11:37:27;98624.09;;;12.07;59.84
9746;BME280;4912;50.836;12.958;2023-11-18T11:40:02;98624.72;;;13.57;55.65
9746;BME280;4912;50.836;12.958;2023-11-18T11:42:38;98615.06;;;15.34;52.37
9746;BME280;4912;50.836;12.958;2023-11-18T11:45:10;98611.88;;;16.55;48.13
9746;BME280;4912;50.836;12.958;2023-11-18T11:47:49;98607.34;;;16.77;45.71
9746;BME280;4912;50.836;12.958;2023-11-18T11:50:25;98603.09;;;16.27;46.69
9746;BME280;4912;50.836;12.958;2023-11-18T11:53:05;98598.25;;;15.57;48.65
9746;BME280;4912;50.836;12.958;2023-11-18T11:55:47;98596.44;;;15.25;49.07
9746;BME280;4912;50.836;12.958;2023-11-18T11:58:26;98598.72;;;15.12;49.55
9746;BME280;4912;50.836;12.958;2023-11-18T12:00:59;98591.69;;;15.02;50.60
9746;BME280;4912;50.836;12.958;2023-11-18T12:03:39;98581.41;;;15.23;49.90
9746;BME280;4912;50.836;12.958;2023-11-18T12:06:12;98581.22;;;15.41;48.83
9746;BME280;4912;50.836;12.958;2023-11-18T12:08:45;98573.25;;;15.34;47.81
9746;BME280;4912;50.836;12.958;2023-11-18T12:11:18;98564.50;;;15.41;48.92
9746;BME280;4912;50.836;12.958;2023-11-18T12:14:01;98558.28;;;17.28;44.03
9746;BME280;4912;50.836;12.958;2023-11-18T12:16:57;98550.13;;;19.39;40.03
9746;BME280;4912;50.836;12.958;2023-11-18T12:19:36;98539.00;;;20.94;37.45
9746;BME280;4912;50.836;12.958;2023-11-18T12:22:12;98535.09;;;22.03;34.43
9746;BME280;4912;50.836;12.958;2023-11-18T12:28:11;98515.31;;;23.08;32.43
9746;BME280;4912;50.836;12.958;2023-11-18T12:30:44;98510.44;;;22.28;31.97
9746;BME280;4912;50.836;12.958;2023-11-18T12:40:23;98508.03;;;18.24;37.46
9746;BME280;4912;50.836;12.958;2023-11-18T12:43:15;98505.00;;;19.48;34.19
9746;BME280;4912;50.836;12.958;2023-11-18T12:46:11;98504.63;;;20.08;31.97
9746;BME280;4912;50.836;12.958;2023-11-18T12:48:57;98499.41;;;20.86;31.17
9746;BME280;4912;50.836;12.958;2023-11-18T12:51:28;98501.91;;;19.41;31.94
9746;BME280;4912;50.836;12.958;2023-11-18T12:53:59;98495.00;;;18.97;34.30
9746;BME280;4912;50.836;12.958;2023-11-18T12:56:37;98486.34;;;18.95;33.81
9746;BME280;4912;50.836;12.958;2023-11-18T12:59:11;98493.78;;;19.48;32.86
9746;BME280;4912;50.836;12.958;2023-11-18T13:01:46;98491.84;;;20.12;32.85
9746;BME280;4912;50.836;12.958;2023-11-18T13:04:21;98482.75;;;19.73;32.82
9746;BME280;4912;50.836;12.958;2023-11-18T13:06:52;98477.66;;;18.88;34.12
9746;BME280;4912;50.836;12.958;2023-11-18T13:09:23;98479.56;;;17.41;36.01
9746;BME280;4912;50.836;12.958;2023-11-18T13:12:06;98464.63;;;16.61;37.95
9746;BME280;4912;50.836;12.958;2023-11-18T13:14:38;98464.31;;;15.92;39.00
9746;BME280;4912;50.836;12.958;2023-11-18T13:17:10;98474.84;;;15.48;40.64
9746;BME280;4912;50.836;12.958;2023-11-18T13:19:43;98500.47;;;14.73;41.33
9746;BME280;4912;50.836;12.958;2023-11-18T13:22:15;98508.25;;;13.17;45.32
9746;BME280;4912;50.836;12.958;2023-11-18T13:24:47;98513.75;;;12.66;46.82
9746;BME280;4912;50.836;12.958;2023-11-18T13:27:20;98524.25;;;12.07;49.02
9746;BME280;4912;50.836;12.958;2023-11-18T13:29:53;98524.34;;;11.85;50.43
9746;BME280;4912;50.836;12.958;2023-11-18T13:32:24;98516.88;;;11.64;51.21
9746;BME280;4912;50.836;12.958;2023-11-18T13:34:55;98511.06;;;11.71;51.23
9746;BME280;4912;50.836;12.958;2023-11-18T13:37:26;98521.38;;;11.31;52.37
9746;BME280;4912;50.836;12.958;2023-11-18T13:39:57;98515.72;;;10.82;54.23
9746;BME280;4912;50.836;12.958;2023-11-18T13:42:32;98513.94;;;10.44;55.50
9746;BME280;4912;50.836;12.958;2023-11-18T13:45:11;98514.94;;;10.38;56.39
9746;BME280;4912;50.836;12.958;2023-11-18T13:48:02;98518.88;;;10.15;56.45
9746;BME280;4912;50.836;12.958;2023-11-18T13:50:34;98518.56;;;9.66;58.96
9746;BME280;4912;50.836;12.958;2023-11-18T13:53:06;98512.28;;;9.53;59.30
9746;BME280;4912;50.836;12.958;2023-11-18T13:55:38;98509.94;;;9.13;61.26
9746;BME280;4912;50.836;12.958;2023-11-18T13:58:11;98502.44;;;9.26;61.43
9746;BME280;4912;50.836;12.958;2023-11-18T14:00:42;98507.53;;;9.40;61.49
9746;BME280;4912;50.836;12.958;2023-11-18T14:03:14;98497.72;;;9.39;61.45